Time;durP1;ratioP1;P1;durP2;ratioP2;P2;SDS_P1;SDS_P2;PMS_P1;PMS_P2;Temp;Humidity;BMP_temperature;BMP_pressure;BME280_temperature;BME280_humidity;BME280_pressure;Samples;Min_cycle;Max_cycle;Signal;HPM_P1;HPM_P2
2023/02/09 00:01:14;;;;;;;;;;;21.30;48.20;;;;;;1583672;74;760;-68
2023/02/09 00:03:16;;;;;;;;;;;21.20;47.80;;;;;;1564511;74;976;-68
2023/02/09 00:05:18;;;;;;;;;;;21.20;48.00;;;;;;1571396;74;816;-68
2023/02/09 00:07:20;;;;;;;;;;;21.20;47.90;;;;;;1567662;74;1143;-69
2023/02/09 00:09:22;;;;;;;;;;;21.10;48.00;;;;;;1585222;74;801;-66
2023/02/09 00:13:21;;;;;;;;;;;21.20;47.80;;;;;;1587022;74;1521;-68
2023/02/09 00:13:28;;;;;;;;;;;21.20;48.10;;;;;;1583890;74;1489;-67
2023/02/09 00:15:30;;;;;;;;;;;21.10;48.10;;;;;;1575262;74;684;-68
2023/02/09 00:17:32;;;;;;;;;;;21.10;48.40;;;;;;1571013;74;1948;-67
2023/02/09 00:19:34;;;;;;;;;;;21.20;48.10;;;;;;1574456;74;739;-68
2023/02/09 00:21:36;;;;;;;;;;;21.10;48.10;;;;;;1583325;74;729;-66
2023/02/09 00:23:38;;;;;;;;;;;21.20;47.80;;;;;;1579059;74;702;-68
2023/02/09 00:25:40;;;;;;;;;;;21.20;47.70;;;;;;1573769;74;759;-68
2023/02/09 00:27:42;;;;;;;;;;;21.40;47.80;;;;;;1572862;74;1146;-68
2023/02/09 00:29:44;;;;;;;;;;;21.30;47.90;;;;;;1574658;74;704;-67
2023/02/09 00:31:46;;;;;;;;;;;21.30;47.80;;;;;;1577467;74;746;-68
2023/02/09 00:33:48;;;;;;;;;;;21.30;47.80;;;;;;1573066;74;778;-69
2023/02/09 00:35:50;;;;;;;;;;;21.30;47.80;;;;;;1576705;74;1958;-67
2023/02/09 00:37:51;;;;;;;;;;;21.20;47.90;;;;;;1572377;74;1156;-66
2023/02/09 00:39:53;;;;;;;;;;;21.10;47.80;;;;;;1576747;74;872;-66
2023/02/09 00:42:09;;;;;;;;;;;21.10;48.00;;;;;;1582467;74;801;-67
2023/02/09 00:44:11;;;;;;;;;;;21.10;48.20;;;;;;1568612;74;1666;-69
2023/02/09 00:46:13;;;;;;;;;;;21.20;48.00;;;;;;1580099;74;735;-67
2023/02/09 00:48:14;;;;;;;;;;;21.10;48.00;;;;;;1585741;74;1127;-69
2023/02/09 00:50:16;;;;;;;;;;;21.20;47.70;;;;;;1585400;74;723;-67
2023/02/09 00:52:18;;;;;;;;;;;21.20;47.80;;;;;;1574632;74;701;-67
2023/02/09 00:54:20;;;;;;;;;;;21.20;47.70;;;;;;1570440;74;701;-67
2023/02/09 00:56:23;;;;;;;;;;;21.10;47.70;;;;;;1582398;73;1934;-66
2023/02/09 00:58:24;;;;;;;;;;;21.30;47.90;;;;;;1571291;74;776;-67
2023/02/09 01:00:26;;;;;;;;;;;21.20;47.60;;;;;;1575827;74;671;-67
2023/02/09 01:02:28;;;;;;;;;;;21.30;47.60;;;;;;1570592;74;685;-68
2023/02/09 01:04:30;;;;;;;;;;;21.30;47.80;;;;;;1578545;74;798;-66
2023/02/09 01:06:32;;;;;;;;;;;21.20;47.60;;;;;;1574551;74;1154;-66
2023/02/09 01:08:34;;;;;;;;;;;21.30;48.10;;;;;;1564052;71;3005;-67
2023/02/09 01:10:36;;;;;;;;;;;21.20;47.70;;;;;;1562904;75;699;-66
2023/02/09 01:12:39;;;;;;;;;;;21.30;47.80;;;;;;1558171;74;711;-66
2023/02/09 01:14:42;;;;;;;;;;;21.30;48.00;;;;;;1561067;74;701;-69
2023/02/09 01:16:44;;;;;;;;;;;21.30;47.90;;;;;;1566356;74;1924;-67
2023/02/09 01:18:46;;;;;;;;;;;21.30;48.30;;;;;;1539815;74;1217;-67
2023/02/09 01:20:48;;;;;;;;;;;21.30;48.20;;;;;;1540163;76;710;-69
2023/02/09 01:22:50;;;;;;;;;;;21.20;48.50;;;;;;1539312;75;740;-72
2023/02/09 01:24:52;;;;;;;;;;;21.20;48.60;;;;;;1542570;75;798;-70
2023/02/09 01:26:54;;;;;;;;;;;21.30;48.90;;;;;;1540280;75;735;-68
2023/02/09 01:28:56;;;;;;;;;;;21.30;48.50;;;;;;1542167;75;1071;-70
2023/02/09 01:30:57;;;;;;;;;;;21.30;48.30;;;;;;1543108;76;740;-71
2023/02/09 01:32:59;;;;;;;;;;;21.40;48.10;;;;;;1536234;75;707;-68
2023/02/09 01:35:01;;;;;;;;;;;21.30;48.10;;;;;;1537007;76;708;-67
2023/02/09 01:37:03;;;;;;;;;;;21.30;48.10;;;;;;1541653;75;1940;-69
2023/02/09 01:39:05;;;;;;;;;;;21.30;48.00;;;;;;1537399;76;767;-68
2023/02/09 01:41:07;;;;;;;;;;;21.30;48.10;;;;;;1537282;75;807;-71
2023/02/09 01:43:10;;;;;;;;;;;21.30;47.90;;;;;;1540318;76;736;-73
2023/02/09 01:45:30;;;;;;;;;;;21.20;48.10;;;;;;1504268;77;720;-69
2023/02/09 01:47:32;;;;;;;;;;;21.30;48.40;;;;;;1533516;75;1147;-71
2023/02/09 01:49:34;;;;;;;;;;;21.30;48.40;;;;;;1538067;75;679;-71
2023/02/09 01:51:38;;;;;;;;;;;21.20;48.30;;;;;;1536232;76;743;-69
2023/02/09 01:53:39;;;;;;;;;;;21.20;48.60;;;;;;1532468;75;762;-72
2023/02/09 01:55:46;;;;;;;;;;;21.20;48.70;;;;;;1535709;76;684;-68
2023/02/09 01:57:49;;;;;;;;;;;21.20;48.60;;;;;;1532599;75;1942;-68
2023/02/09 01:59:52;;;;;;;;;;;21.10;48.60;;;;;;1538205;76;718;-68
2023/02/09 02:01:54;;;;;;;;;;;21.20;48.60;;;;;;1535584;76;661;-68
2023/02/09 02:03:56;;;;;;;;;;;21.20;48.60;;;;;;1529730;75;1463;-69
2023/02/09 02:06:10;;;;;;;;;;;21.20;48.50;;;;;;1531324;75;716;-68
2023/02/09 02:08:20;;;;;;;;;;;21.20;49.00;;;;;;1543135;76;1108;-69
2023/02/09 02:10:22;;;;;;;;;;;21.00;48.90;;;;;;1538079;76;653;-70
2023/02/09 02:12:23;;;;;;;;;;;21.00;48.90;;;;;;1538697;75;730;-70
2023/02/09 02:14:27;;;;;;;;;;;21.00;49.00;;;;;;1532643;75;728;-70
2023/02/09 02:16:36;;;;;;;;;;;21.00;48.90;;;;;;1545685;76;1936;-69
2023/02/09 02:18:55;;;;;;;;;;;21.10;48.70;;;;;;1545736;76;1191;-68
2023/02/09 02:21:04;;;;;;;;;;;21.10;48.90;;;;;;1542149;76;702;-69
2023/02/09 02:23:10;;;;;;;;;;;21.00;48.70;;;;;;1539425;76;722;-68
2023/02/09 02:25:14;;;;;;;;;;;21.00;49.00;;;;;;1539855;76;992;-67
2023/02/09 02:27:34;;;;;;;;;;;21.00;48.90;;;;;;1531759;75;1157;-68
2023/02/09 02:29:43;;;;;;;;;;;21.00;49.10;;;;;;1546006;76;730;-69
2023/02/09 02:31:47;;;;;;;;;;;21.00;48.90;;;;;;1538247;75;703;-70
2023/02/09 02:33:51;;;;;;;;;;;21.00;48.60;;;;;;1531972;76;1060;-68
2023/02/09 02:35:54;;;;;;;;;;;21.10;48.40;;;;;;1543446;76;739;-70
2023/02/09 02:37:57;;;;;;;;;;;21.20;48.30;;;;;;1532183;76;1935;-72
2023/02/09 02:40:01;;;;;;;;;;;21.30;48.30;;;;;;1526939;75;714;-68
2023/02/09 02:44:32;;;;;;;;;;;21.20;48.10;;;;;;1543361;75;1688;-69
2023/02/09 02:46:45;;;;;;;;;;;21.20;48.10;;;;;;1544995;75;738;-71
2023/02/09 02:48:52;;;;;;;;;;;21.10;48.20;;;;;;1496850;77;1118;-69
2023/02/09 02:50:58;;;;;;;;;;;21.10;48.10;;;;;;1526623;75;678;-69
2023/02/09 02:53:01;;;;;;;;;;;21.10;48.30;;;;;;1532561;75;698;-69
2023/02/09 02:55:04;;;;;;;;;;;21.20;48.30;;;;;;1540314;75;698;-70
2023/02/09 02:57:08;;;;;;;;;;;21.20;48.10;;;;;;1536616;75;1939;-68
2023/02/09 02:59:11;;;;;;;;;;;21.20;48.50;;;;;;1539496;75;1471;-69
2023/02/09 03:01:14;;;;;;;;;;;21.10;48.40;;;;;;1532272;76;986;-68
2023/02/09 03:03:18;;;;;;;;;;;21.10;48.50;;;;;;1532517;75;754;-69
2023/02/09 03:05:21;;;;;;;;;;;21.00;48.50;;;;;;1544076;75;1089;-71
2023/02/09 03:07:23;;;;;;;;;;;21.10;48.50;;;;;;1527046;75;1145;-69
2023/02/09 03:09:25;;;;;;;;;;;21.00;48.50;;;;;;1544035;75;817;-67
2023/02/09 03:11:37;;;;;;;;;;;21.10;48.80;;;;;;1535440;75;736;-69
2023/02/09 03:13:53;;;;;;;;;;;21.10;48.90;;;;;;1532559;75;709;-70
2023/02/09 03:16:13;;;;;;;;;;;21.00;49.20;;;;;;1529273;75;1053;-72
2023/02/09 03:18:32;;;;;;;;;;;21.10;49.00;;;;;;1530751;75;1940;-72
2023/02/09 03:20:35;;;;;;;;;;;21.00;48.90;;;;;;1544932;75;710;-69
2023/02/09 03:22:38;;;;;;;;;;;21.10;48.70;;;;;;1550949;75;1078;-70
2023/02/09 03:24:41;;;;;;;;;;;21.10;48.90;;;;;;1553547;75;705;-68
2023/02/09 03:26:48;;;;;;;;;;;21.00;48.60;;;;;;1530290;76;586;-73
2023/02/09 03:28:51;;;;;;;;;;;21.10;49.00;;;;;;1521773;76;1184;-69
2023/02/09 03:30:53;;;;;;;;;;;21.00;48.90;;;;;;1537761;75;714;-68
2023/02/09 03:32:55;;;;;;;;;;;21.00;48.90;;;;;;1532631;76;796;-70
2023/02/09 03:34:57;;;;;;;;;;;21.00;48.90;;;;;;1530377;76;718;-72
2023/02/09 03:36:59;;;;;;;;;;;20.90;49.20;;;;;;1532478;75;1896;-67
2023/02/09 03:39:01;;;;;;;;;;;20.90;49.40;;;;;;1539615;76;1183;-67
2023/02/09 03:41:03;;;;;;;;;;;20.90;49.20;;;;;;1553380;75;715;-70
2023/02/09 03:43:05;;;;;;;;;;;20.90;49.10;;;;;;1536386;75;626;-72
2023/02/09 03:45:07;;;;;;;;;;;20.90;49.30;;;;;;1539221;75;755;-72
2023/02/09 03:47:09;;;;;;;;;;;20.90;49.60;;;;;;1539053;75;1124;-64
2023/02/09 03:49:13;;;;;;;;;;;20.90;49.50;;;;;;1527244;76;779;-64
2023/02/09 03:51:14;;;;;;;;;;;20.90;49.60;;;;;;1534496;76;1580;-64
2023/02/09 03:53:16;;;;;;;;;;;21.00;49.30;;;;;;1538570;75;771;-65
2023/02/09 03:55:18;;;;;;;;;;;21.10;49.20;;;;;;1531389;75;641;-66
2023/02/09 03:57:20;;;;;;;;;;;21.10;49.00;;;;;;1542397;76;1939;-66
2023/02/09 03:59:24;;;;;;;;;;;21.20;48.80;;;;;;1536969;75;736;-63
2023/02/09 04:01:25;;;;;;;;;;;21.20;48.70;;;;;;1520558;75;725;-64
2023/02/09 04:03:27;;;;;;;;;;;21.20;48.30;;;;;;1537065;76;702;-64
2023/02/09 04:05:29;;;;;;;;;;;21.20;48.40;;;;;;1537852;76;710;-64
2023/02/09 04:07:31;;;;;;;;;;;21.30;48.40;;;;;;1544044;76;1165;-64
2023/02/09 04:09:33;;;;;;;;;;;21.30;48.20;;;;;;1545986;75;731;-67
2023/02/09 04:11:35;;;;;;;;;;;21.20;48.10;;;;;;1551647;76;814;-63
2023/02/09 04:13:36;;;;;;;;;;;21.30;48.20;;;;;;1532399;75;685;-64
2023/02/09 04:15:39;;;;;;;;;;;21.30;48.10;;;;;;1526672;75;702;-63
2023/02/09 04:17:41;;;;;;;;;;;21.30;48.00;;;;;;1531783;75;1924;-64
2023/02/09 04:19:43;;;;;;;;;;;21.30;48.10;;;;;;1526924;76;710;-63
2023/02/09 04:21:45;;;;;;;;;;;21.30;48.10;;;;;;1526417;76;800;-63
2023/02/09 04:23:46;;;;;;;;;;;21.30;48.10;;;;;;1542652;75;711;-64
2023/02/09 04:25:48;;;;;;;;;;;21.30;48.10;;;;;;1543912;75;782;-67
2023/02/09 04:27:50;;;;;;;;;;;21.30;48.10;;;;;;1544984;75;1150;-63
2023/02/09 04:29:52;;;;;;;;;;;21.30;47.90;;;;;;1551517;75;755;-63
2023/02/09 04:31:54;;;;;;;;;;;21.30;48.00;;;;;;1533769;75;771;-61
2023/02/09 04:33:56;;;;;;;;;;;21.30;47.90;;;;;;1541660;76;789;-64
2023/02/09 04:35:58;;;;;;;;;;;21.30;48.00;;;;;;1537887;75;773;-63
2023/02/09 04:38:00;;;;;;;;;;;21.30;48.00;;;;;;1546155;76;1924;-65
2023/02/09 04:40:02;;;;;;;;;;;21.20;48.00;;;;;;1539713;75;733;-64
2023/02/09 04:42:04;;;;;;;;;;;21.30;48.10;;;;;;1553230;75;728;-67
2023/02/09 04:44:06;;;;;;;;;;;21.30;48.40;;;;;;1542806;75;779;-63
2023/02/09 04:46:09;;;;;;;;;;;21.10;48.40;;;;;;1542144;76;705;-63
2023/02/09 04:48:12;;;;;;;;;;;21.10;48.60;;;;;;1549246;76;1774;-63
2023/02/09 04:50:13;;;;;;;;;;;21.20;48.40;;;;;;1535855;75;697;-64
2023/02/09 04:52:16;;;;;;;;;;;21.10;48.50;;;;;;1540850;76;704;-64
2023/02/09 04:54:17;;;;;;;;;;;21.10;48.70;;;;;;1538448;75;808;-65
2023/02/09 04:56:19;;;;;;;;;;;21.10;48.60;;;;;;1539059;75;776;-65
2023/02/09 05:00:41;;;;;;;;;;;21.20;48.60;;;;;;1536139;75;1638;-67
2023/02/09 05:02:43;;;;;;;;;;;21.10;48.70;;;;;;1535265;76;785;-65
2023/02/09 05:04:45;;;;;;;;;;;21.10;48.80;;;;;;1532706;75;786;-65
2023/02/09 05:06:47;;;;;;;;;;;21.10;48.50;;;;;;1532884;76;675;-66
2023/02/09 05:08:49;;;;;;;;;;;21.00;48.80;;;;;;1537951;76;1115;-65
2023/02/09 05:10:51;;;;;;;;;;;21.00;48.80;;;;;;1531848;75;818;-67
2023/02/09 05:12:53;;;;;;;;;;;21.20;48.70;;;;;;1538331;75;806;-68
2023/02/09 05:14:54;;;;;;;;;;;21.20;48.40;;;;;;1529112;75;746;-65
2023/02/09 05:16:56;;;;;;;;;;;21.20;48.30;;;;;;1535713;75;696;-68
2023/02/09 05:18:58;;;;;;;;;;;21.20;48.40;;;;;;1536718;76;1953;-63
2023/02/09 05:21:00;;;;;;;;;;;21.10;48.30;;;;;;1534615;75;730;-64
2023/02/09 05:23:02;;;;;;;;;;;21.20;48.50;;;;;;1521509;75;778;-63
2023/02/09 05:25:04;;;;;;;;;;;21.20;48.70;;;;;;1540422;75;768;-64
2023/02/09 05:27:06;;;;;;;;;;;21.20;48.50;;;;;;1531651;76;728;-66
2023/02/09 05:29:08;;;;;;;;;;;21.20;48.50;;;;;;1535541;75;780;-63
2023/02/09 05:31:10;;;;;;;;;;;21.30;48.60;;;;;;1534676;76;658;-65
2023/02/09 05:33:12;;;;;;;;;;;21.20;48.30;;;;;;1541545;75;777;-64
2023/02/09 05:35:13;;;;;;;;;;;21.20;48.20;;;;;;1540060;75;744;-65
2023/02/09 05:37:15;;;;;;;;;;;21.20;48.40;;;;;;1537820;75;1140;-65
2023/02/09 05:39:17;;;;;;;;;;;21.20;48.40;;;;;;1531937;76;1951;-64
2023/02/09 05:43:39;;;;;;;;;;;21.20;48.40;;;;;;1526508;75;1655;-64
2023/02/09 05:45:41;;;;;;;;;;;21.10;48.60;;;;;;1536493;76;763;-65
2023/02/09 05:47:43;;;;;;;;;;;21.10;48.80;;;;;;1534011;76;1152;-63
2023/02/09 05:49:44;;;;;;;;;;;21.00;48.60;;;;;;1535209;75;732;-64
2023/02/09 05:51:46;;;;;;;;;;;21.20;48.70;;;;;;1538570;76;795;-64
2023/02/09 05:53:48;;;;;;;;;;;21.20;48.50;;;;;;1531580;76;848;-65
2023/02/09 05:55:50;;;;;;;;;;;21.20;48.70;;;;;;1535126;75;809;-64
2023/02/09 05:57:52;;;;;;;;;;;21.20;48.70;;;;;;1543388;75;1943;-64
2023/02/09 05:59:54;;;;;;;;;;;21.10;49.20;;;;;;1536554;75;670;-63
2023/02/09 06:01:56;;;;;;;;;;;21.10;49.20;;;;;;1532853;75;666;-66
2023/02/09 06:03:58;;;;;;;;;;;21.10;49.20;;;;;;1535225;76;712;-63
2023/02/09 06:06:00;;;;;;;;;;;21.10;49.20;;;;;;1535668;76;772;-64
2023/02/09 06:08:01;;;;;;;;;;;21.10;49.10;;;;;;1532640;76;1170;-64
2023/02/09 06:10:03;;;;;;;;;;;21.10;49.20;;;;;;1534658;75;795;-65
2023/02/09 06:12:05;;;;;;;;;;;21.10;49.30;;;;;;1541477;76;688;-64
2023/02/09 06:14:07;;;;;;;;;;;21.20;48.90;;;;;;1539910;75;665;-66
2023/02/09 06:16:09;;;;;;;;;;;21.20;48.30;;;;;;1535808;75;801;-70
2023/02/09 06:18:11;;;;;;;;;;;21.20;48.40;;;;;;1542278;76;1960;-64
2023/02/09 06:20:13;;;;;;;;;;;21.20;48.30;;;;;;1551241;76;825;-65
2023/02/09 06:22:14;;;;;;;;;;;21.40;48.10;;;;;;1536892;75;731;-65
2023/02/09 06:24:16;;;;;;;;;;;21.30;48.00;;;;;;1536201;76;795;-64
2023/02/09 06:26:18;;;;;;;;;;;21.30;48.00;;;;;;1525861;76;699;-65
2023/02/09 06:28:20;;;;;;;;;;;21.30;48.00;;;;;;1538866;75;1151;-66
2023/02/09 06:30:22;;;;;;;;;;;21.30;47.90;;;;;;1540117;76;784;-64
2023/02/09 06:32:24;;;;;;;;;;;21.30;47.80;;;;;;1535647;75;740;-63
2023/02/09 06:34:26;;;;;;;;;;;21.40;47.70;;;;;;1534743;76;716;-64
2023/02/09 06:36:28;;;;;;;;;;;21.40;47.60;;;;;;1537629;75;696;-64
2023/02/09 06:38:30;;;;;;;;;;;21.30;47.60;;;;;;1541947;75;1954;-64
2023/02/09 06:40:32;;;;;;;;;;;21.40;47.60;;;;;;1536616;76;743;-64
2023/02/09 06:42:43;;;;;;;;;;;21.30;47.50;;;;;;1531309;75;713;-64
2023/02/09 06:44:45;;;;;;;;;;;21.40;47.40;;;;;;1532830;75;1458;-65
2023/02/09 06:46:47;;;;;;;;;;;21.30;47.30;;;;;;1530511;76;802;-65
2023/02/09 06:48:48;;;;;;;;;;;21.30;47.40;;;;;;1536085;75;1162;-68
2023/02/09 06:50:50;;;;;;;;;;;21.30;47.40;;;;;;1540836;76;622;-71
2023/02/09 06:52:52;;;;;;;;;;;21.30;47.50;;;;;;1528761;75;708;-67
2023/02/09 06:54:54;;;;;;;;;;;21.30;47.50;;;;;;1521970;76;761;-69
2023/02/09 06:56:56;;;;;;;;;;;21.20;47.40;;;;;;1531159;75;1067;-70
2023/02/09 06:58:58;;;;;;;;;;;21.20;47.40;;;;;;1527719;76;1943;-66
2023/02/09 07:01:04;;;;;;;;;;;21.20;47.30;;;;;;1529930;75;710;-66
2023/02/09 07:03:06;;;;;;;;;;;21.20;47.30;;;;;;1550607;76;1032;-66
2023/02/09 07:05:08;;;;;;;;;;;21.20;47.30;;;;;;1531567;76;661;-66
2023/02/09 07:07:10;;;;;;;;;;;21.10;47.30;;;;;;1539743;76;1170;-69
2023/02/09 07:09:11;;;;;;;;;;;21.10;47.40;;;;;;1566875;73;2802;-69
2023/02/09 07:11:14;;;;;;;;;;;21.10;47.40;;;;;;1553154;74;782;-67
2023/02/09 07:13:16;;;;;;;;;;;21.10;47.30;;;;;;1566990;74;872;-70
2023/02/09 07:15:18;;;;;;;;;;;21.10;47.30;;;;;;1571418;74;786;-70
2023/02/09 07:17:19;;;;;;;;;;;21.00;47.30;;;;;;1566972;74;837;-67
2023/02/09 07:19:21;;;;;;;;;;;21.10;47.40;;;;;;1553553;75;1961;-67
2023/02/09 07:21:23;;;;;;;;;;;21.00;47.30;;;;;;1572058;75;791;-66
2023/02/09 07:23:25;;;;;;;;;;;21.00;47.30;;;;;;1564663;74;714;-67
2023/02/09 07:25:27;;;;;;;;;;;21.00;47.30;;;;;;1566288;74;791;-67
2023/02/09 07:27:29;;;;;;;;;;;21.00;47.30;;;;;;1565381;74;828;-68
2023/02/09 07:29:31;;;;;;;;;;;21.00;47.30;;;;;;1554129;74;1046;-67
2023/02/09 07:31:33;;;;;;;;;;;21.00;47.30;;;;;;1561457;74;734;-67
2023/02/09 07:33:35;;;;;;;;;;;21.00;47.30;;;;;;1562914;76;728;-66
2023/02/09 07:35:39;;;;;;;;;;;21.00;47.10;;;;;;1550500;74;775;-67
2023/02/09 07:37:41;;;;;;;;;;;21.00;47.00;;;;;;1549869;74;1155;-67
2023/02/09 07:39:42;;;;;;;;;;;21.00;47.20;;;;;;1550737;74;1941;-66
2023/02/09 07:41:44;;;;;;;;;;;21.00;46.80;;;;;;1562476;74;707;-68
2023/02/09 07:43:46;;;;;;;;;;;20.90;46.60;;;;;;1567449;75;746;-68
2023/02/09 07:45:48;;;;;;;;;;;20.80;46.70;;;;;;1558411;75;742;-68
2023/02/09 07:47:50;;;;;;;;;;;20.70;46.60;;;;;;1562948;74;1187;-68
2023/02/09 07:49:52;;;;;;;;;;;20.60;46.70;;;;;;1562808;74;815;-67
2023/02/09 07:51:54;;;;;;;;;;;20.50;46.60;;;;;;1559040;75;716;-66
2023/02/09 07:53:56;;;;;;;;;;;20.50;46.70;;;;;;1555823;75;707;-65
2023/02/09 07:55:58;;;;;;;;;;;20.40;46.90;;;;;;1568485;74;768;-67
2023/02/09 07:58:00;;;;;;;;;;;20.40;47.00;;;;;;1559213;74;1207;-68
2023/02/09 08:00:02;;;;;;;;;;;20.40;47.10;;;;;;1558979;74;1918;-68
2023/02/09 08:02:04;;;;;;;;;;;20.40;47.30;;;;;;1566967;76;741;-68
2023/02/09 08:04:05;;;;;;;;;;;20.40;47.10;;;;;;1550942;74;760;-67
2023/02/09 08:06:09;;;;;;;;;;;20.40;47.30;;;;;;1557464;75;670;-67
2023/02/09 08:08:11;;;;;;;;;;;20.40;47.40;;;;;;1554372;75;1145;-67
2023/02/09 08:10:13;;;;;;;;;;;20.30;47.70;;;;;;1554971;74;754;-67
2023/02/09 08:12:15;;;;;;;;;;;20.40;47.60;;;;;;1564122;75;728;-67
2023/02/09 08:14:18;;;;;;;;;;;20.40;47.50;;;;;;1559340;74;749;-69
2023/02/09 08:16:20;;;;;;;;;;;20.40;47.20;;;;;;1550921;74;778;-68
2023/02/09 08:18:23;;;;;;;;;;;20.30;47.30;;;;;;1524709;76;1154;-71
2023/02/09 08:20:26;;;;;;;;;;;20.30;47.30;;;;;;1507113;77;1947;-67
2023/02/09 08:22:29;;;;;;;;;;;20.40;47.30;;;;;;1512661;76;713;-67
2023/02/09 08:24:31;;;;;;;;;;;20.30;47.30;;;;;;1512239;76;868;-68
2023/02/09 08:26:33;;;;;;;;;;;20.20;47.30;;;;;;1556099;74;780;-67
2023/02/09 08:28:35;;;;;;;;;;;20.30;47.60;;;;;;1558767;74;1142;-68
2023/02/09 08:30:37;;;;;;;;;;;20.30;47.40;;;;;;1563902;75;746;-68
2023/02/09 08:32:39;;;;;;;;;;;20.30;47.40;;;;;;1532737;76;850;-67
2023/02/09 08:34:41;;;;;;;;;;;20.30;47.30;;;;;;1555930;75;726;-68
2023/02/09 08:36:42;;;;;;;;;;;20.30;47.80;;;;;;1553744;74;617;-66
2023/02/09 08:38:44;;;;;;;;;;;20.30;47.30;;;;;;1559896;75;1952;-68
2023/02/09 08:40:46;;;;;;;;;;;20.40;47.40;;;;;;1558715;75;732;-67
2023/02/09 08:42:48;;;;;;;;;;;20.40;47.40;;;;;;1555956;74;729;-67
2023/02/09 08:44:50;;;;;;;;;;;20.30;47.50;;;;;;1563901;74;747;-68
2023/02/09 08:46:52;;;;;;;;;;;20.30;47.50;;;;;;1555344;74;668;-68
2023/02/09 08:48:54;;;;;;;;;;;20.20;47.30;;;;;;1544233;75;1164;-68
2023/02/09 08:50:56;;;;;;;;;;;20.30;47.60;;;;;;1553009;76;762;-68
2023/02/09 08:52:58;;;;;;;;;;;20.20;47.50;;;;;;1562580;74;829;-67
2023/02/09 08:55:00;;;;;;;;;;;20.20;47.60;;;;;;1566160;74;716;-68
2023/02/09 08:57:02;;;;;;;;;;;20.20;47.70;;;;;;1553503;74;773;-69
2023/02/09 08:59:04;;;;;;;;;;;20.20;47.70;;;;;;1570058;75;1950;-68
2023/02/09 09:01:06;;;;;;;;;;;20.20;47.80;;;;;;1570500;74;829;-68
2023/02/09 09:03:07;;;;;;;;;;;20.20;47.80;;;;;;1555433;75;769;-68
2023/02/09 09:05:09;;;;;;;;;;;20.20;47.90;;;;;;1558483;76;736;-68
2023/02/09 09:07:11;;;;;;;;;;;20.20;47.90;;;;;;1559949;74;776;-69
2023/02/09 09:09:13;;;;;;;;;;;20.20;48.00;;;;;;1554803;74;1120;-68
2023/02/09 09:11:16;;;;;;;;;;;20.10;48.10;;;;;;1552467;75;715;-69
2023/02/09 09:13:18;;;;;;;;;;;20.20;48.00;;;;;;1567145;74;751;-66
2023/02/09 09:15:20;;;;;;;;;;;20.20;48.10;;;;;;1554914;74;773;-69
2023/02/09 09:17:22;;;;;;;;;;;20.20;48.10;;;;;;1559137;74;764;-69
2023/02/09 09:19:24;;;;;;;;;;;20.20;48.10;;;;;;1563824;74;1949;-69
2023/02/09 09:21:25;;;;;;;;;;;20.20;48.10;;;;;;1562654;74;767;-71
2023/02/09 09:23:27;;;;;;;;;;;20.20;48.10;;;;;;1555232;74;842;-68
2023/02/09 09:25:29;;;;;;;;;;;20.20;48.10;;;;;;1557791;74;775;-68
2023/02/09 09:27:34;;;;;;;;;;;20.10;48.20;;;;;;1566168;74;759;-69
2023/02/09 09:29:38;;;;;;;;;;;20.20;48.20;;;;;;1554577;74;1083;-69
2023/02/09 09:31:40;;;;;;;;;;;20.20;48.20;;;;;;1557970;74;1403;-68
2023/02/09 09:33:42;;;;;;;;;;;20.20;48.20;;;;;;1521960;76;949;-67
2023/02/09 09:35:44;;;;;;;;;;;20.20;48.20;;;;;;1563628;74;764;-68
2023/02/09 09:37:46;;;;;;;;;;;20.20;48.20;;;;;;1557735;76;1171;-69
2023/02/09 09:39:48;;;;;;;;;;;20.20;48.30;;;;;;1563196;74;1944;-65
2023/02/09 09:41:50;;;;;;;;;;;20.20;48.30;;;;;;1559912;74;746;-66
2023/02/09 09:43:52;;;;;;;;;;;20.20;48.30;;;;;;1555999;74;765;-66
2023/02/09 09:45:54;;;;;;;;;;;20.20;48.40;;;;;;1553946;74;756;-67
2023/02/09 09:47:55;;;;;;;;;;;20.20;48.30;;;;;;1555861;74;1184;-68
2023/02/09 09:49:57;;;;;;;;;;;20.20;48.40;;;;;;1553502;74;768;-66
2023/02/09 09:52:07;;;;;;;;;;;20.20;48.40;;;;;;1569311;74;806;-66
2023/02/09 09:54:10;;;;;;;;;;;20.20;48.30;;;;;;1549825;75;786;-66
2023/02/09 09:56:12;;;;;;;;;;;20.20;48.40;;;;;;1567069;74;2352;-66
2023/02/09 09:58:15;;;;;;;;;;;20.20;48.40;;;;;;1565523;74;1156;-66
2023/02/09 10:00:19;;;;;;;;;;;20.20;48.40;;;;;;1563200;74;1918;-67
2023/02/09 10:02:29;;;;;;;;;;;20.20;48.40;;;;;;1568755;74;1795;-66
2023/02/09 10:04:30;;;;;;;;;;;20.20;48.40;;;;;;1565354;74;803;-66
2023/02/09 10:06:32;;;;;;;;;;;20.20;48.40;;;;;;1556082;74;742;-66
2023/02/09 10:08:36;;;;;;;;;;;20.20;48.40;;;;;;1555235;76;1186;-66
2023/02/09 10:10:39;;;;;;;;;;;20.30;48.60;;;;;;1559396;74;826;-66
2023/02/09 10:12:43;;;;;;;;;;;20.30;48.50;;;;;;1555123;74;1913;-66
2023/02/09 10:14:44;;;;;;;;;;;20.20;48.40;;;;;;1558894;75;707;-65
2023/02/09 10:16:46;;;;;;;;;;;20.30;48.50;;;;;;1551520;74;774;-66
2023/02/09 10:18:51;;;;;;;;;;;20.20;48.50;;;;;;1550705;76;1162;-66
2023/02/09 10:20:55;;;;;;;;;;;20.30;48.40;;;;;;1547997;74;1936;-65
2023/02/09 10:22:57;;;;;;;;;;;20.30;48.40;;;;;;1555416;76;731;-68
2023/02/09 10:24:59;;;;;;;;;;;20.30;48.40;;;;;;1557845;74;761;-66
2023/02/09 10:27:06;;;;;;;;;;;20.20;48.30;;;;;;1554657;74;730;-65
2023/02/09 10:29:12;;;;;;;;;;;20.30;48.40;;;;;;1550679;74;2012;-67
2023/02/09 10:31:25;;;;;;;;;;;20.30;48.50;;;;;;1549817;74;913;-66
2023/02/09 10:33:28;;;;;;;;;;;20.30;48.50;;;;;;1552522;74;723;-68
2023/02/09 10:35:34;;;;;;;;;;;20.30;48.40;;;;;;1558587;74;791;-67
2023/02/09 10:37:39;;;;;;;;;;;20.30;48.40;;;;;;1563784;75;1932;-66
2023/02/09 10:39:41;;;;;;;;;;;20.30;48.40;;;;;;1557905;74;1935;-66
2023/02/09 10:41:43;;;;;;;;;;;20.30;48.50;;;;;;1563154;75;773;-67
2023/02/09 10:43:45;;;;;;;;;;;20.30;48.40;;;;;;1563579;74;735;-67
2023/02/09 10:45:49;;;;;;;;;;;20.30;48.40;;;;;;1533646;76;1217;-66
2023/02/09 10:48:00;;;;;;;;;;;20.30;48.40;;;;;;1563109;74;1952;-67
2023/02/09 10:50:13;;;;;;;;;;;20.30;48.40;;;;;;1553424;75;776;-66
2023/02/09 10:52:16;;;;;;;;;;;20.30;48.40;;;;;;1555575;75;691;-65
2023/02/09 10:54:19;;;;;;;;;;;20.30;48.50;;;;;;1550516;74;724;-68
2023/02/09 10:56:22;;;;;;;;;;;20.30;48.70;;;;;;1564177;74;1815;-67
2023/02/09 10:58:26;;;;;;;;;;;20.40;48.60;;;;;;1569225;75;1148;-69
2023/02/09 11:00:29;;;;;;;;;;;20.50;48.60;;;;;;1561833;75;1934;-68
2023/02/09 11:02:40;;;;;;;;;;;20.60;48.40;;;;;;1561734;75;800;-72
2023/02/09 11:04:41;;;;;;;;;;;20.70;48.10;;;;;;1549877;74;821;-72
2023/02/09 11:06:45;;;;;;;;;;;20.90;46.70;;;;;;1552399;74;723;-72
2023/02/09 11:08:51;;;;;;;;;;;21.00;45.20;;;;;;1554044;74;2185;-72
2023/02/09 11:10:58;;;;;;;;;;;21.10;44.10;;;;;;1564599;74;754;-71
2023/02/09 11:13:00;;;;;;;;;;;21.10;43.70;;;;;;1560721;74;717;-69
2023/02/09 11:15:02;;;;;;;;;;;21.10;43.40;;;;;;1558912;75;745;-72
2023/02/09 11:17:08;;;;;;;;;;;21.00;42.30;;;;;;1567800;74;823;-70
2023/02/09 11:19:21;;;;;;;;;;;21.10;42.10;;;;;;1567807;74;1172;-70
2023/02/09 11:21:30;;;;;;;;;;;21.00;41.80;;;;;;1547111;74;1916;-74
2023/02/09 11:23:37;;;;;;;;;;;21.00;41.60;;;;;;1558845;74;723;-72
2023/02/09 11:25:40;;;;;;;;;;;20.90;41.40;;;;;;1566032;74;738;-72
2023/02/09 11:27:44;;;;;;;;;;;20.90;41.00;;;;;;1569673;74;1659;-73
2023/02/09 11:29:47;;;;;;;;;;;20.80;40.50;;;;;;1568309;74;1892;-72
2023/02/09 11:32:06;;;;;;;;;;;20.80;40.40;;;;;;1563503;74;1945;-72
2023/02/09 11:34:26;;;;;;;;;;;20.80;40.30;;;;;;1558625;75;1749;-73
2023/02/09 11:36:38;;;;;;;;;;;20.80;40.00;;;;;;1565212;74;753;-74
2023/02/09 11:38:53;;;;;;;;;;;20.70;39.90;;;;;;1568063;75;1654;-72
2023/02/09 11:40:55;;;;;;;;;;;20.70;39.70;;;;;;1558872;74;1897;-73
2023/02/09 11:43:07;;;;;;;;;;;20.70;39.40;;;;;;1559065;74;723;-74
2023/02/09 11:45:20;;;;;;;;;;;20.60;39.10;;;;;;1563767;75;2052;-73
2023/02/09 11:47:29;;;;;;;;;;;20.60;39.00;;;;;;1576381;74;728;-72
2023/02/09 11:49:45;;;;;;;;;;;20.50;38.90;;;;;;1570148;75;1149;-73
2023/02/09 11:51:47;;;;;;;;;;;20.50;38.70;;;;;;1562242;74;803;-72
2023/02/09 11:54:06;;;;;;;;;;;20.50;38.30;;;;;;1563707;75;749;-73
2023/02/09 11:56:09;;;;;;;;;;;20.40;38.10;;;;;;1556108;74;701;-73
2023/02/09 11:58:12;;;;;;;;;;;20.40;37.80;;;;;;1522895;76;1147;-73
2023/02/09 12:00:19;;;;;;;;;;;20.40;37.80;;;;;;1565046;75;2119;-73
2023/02/09 12:02:29;;;;;;;;;;;20.40;37.60;;;;;;1568271;74;911;-73
2023/02/09 12:04:38;;;;;;;;;;;20.40;37.50;;;;;;1558543;74;1127;-73
2023/02/09 12:06:41;;;;;;;;;;;20.30;37.50;;;;;;1566341;75;707;-73
2023/02/09 12:08:44;;;;;;;;;;;20.20;37.40;;;;;;1566491;74;1147;-72
2023/02/09 12:10:48;;;;;;;;;;;20.30;37.50;;;;;;1563771;74;813;-70
2023/02/09 12:12:51;;;;;;;;;;;20.30;37.40;;;;;;1566594;74;810;-72
2023/02/09 12:15:07;;;;;;;;;;;20.20;37.20;;;;;;1554213;74;721;-72
2023/02/09 12:17:13;;;;;;;;;;;20.20;37.10;;;;;;1555948;74;1857;-72
2023/02/09 12:19:16;;;;;;;;;;;20.10;37.00;;;;;;1566921;76;1139;-72
2023/02/09 12:21:26;;;;;;;;;;;20.10;37.00;;;;;;1559639;74;1917;-72
2023/02/09 12:23:31;;;;;;;;;;;20.10;36.90;;;;;;1564722;74;1663;-71